createdAt,value
2023-03-01T00:01:11.925Z,68.05
2023-03-01T00:03:42.273Z,67.85
2023-03-01T00:06:09.837Z,68.25
2023-03-01T00:08:37.092Z,69.08
2023-03-01T00:11:08.823Z,68.99
2023-03-01T00:13:36.547Z,69.63
2023-03-01T00:16:09.280Z,70.03
2023-03-01T00:18:36.331Z,70.28
2023-03-01T00:21:03.180Z,70.33
2023-03-01T00:23:30.383Z,70.37
2023-03-01T00:25:57.112Z,70.95
2023-03-01T00:28:24.402Z,70.83
2023-03-01T00:30:51.149Z,71.55
2023-03-01T00:33:18.594Z,71.00
2023-03-01T00:35:45.816Z,71.86
2023-03-01T00:38:12.692Z,72.22
2023-03-01T00:40:39.371Z,72.09
2023-03-01T00:43:06.944Z,71.85
2023-03-01T00:45:34.188Z,72.03
2023-03-01T00:48:01.148Z,71.70
2023-03-01T00:50:28.773Z,72.61
2023-03-01T00:52:56.605Z,72.30
2023-03-01T00:55:24.581Z,72.73
2023-03-01T00:57:52.080Z,72.70
2023-03-01T01:00:20.442Z,72.01
2023-03-01T01:02:48.442Z,72.33
2023-03-01T01:05:15.670Z,73.26
2023-03-01T01:07:42.424Z,73.26
2023-03-01T01:10:13.912Z,71.70
2023-03-01T01:12:40.833Z,72.13
2023-03-01T01:15:08.112Z,72.17
2023-03-01T01:17:36.172Z,72.28
2023-03-01T01:20:03.295Z,71.67
2023-03-01T01:22:30.206Z,71.67
2023-03-01T01:24:56.933Z,71.60
2023-03-01T01:27:23.953Z,71.91
2023-03-01T01:29:50.685Z,71.34
2023-03-01T01:32:17.575Z,71.51
2023-03-01T01:34:44.630Z,70.68
2023-03-01T01:37:11.848Z,70.55
2023-03-01T01:39:38.773Z,71.11
2023-03-01T01:42:05.644Z,71.49
2023-03-01T01:44:35.279Z,71.69
2023-03-01T01:47:08.608Z,71.48
2023-03-01T01:49:57.236Z,71.30
2023-03-01T01:52:35.775Z,71.46
2023-03-01T01:55:09.826Z,72.22
2023-03-01T01:58:10.785Z,71.48
2023-03-01T02:00:39.866Z,70.08
2023-03-01T02:03:13.727Z,67.67
2023-03-01T02:05:55.519Z,66.88
2023-03-01T02:08:26.026Z,65.54
2023-03-01T02:10:53.988Z,64.59
2023-03-01T02:13:20.937Z,63.25
2023-03-01T02:15:48.196Z,62.92
2023-03-01T02:18:21.222Z,62.96
2023-03-01T02:20:51.029Z,61.86
2023-03-01T02:23:19.133Z,61.90
2023-03-01T02:25:50.332Z,61.75
2023-03-01T02:28:17.062Z,62.97
2023-03-01T02:31:04.539Z,61.32
2023-03-01T02:33:33.857Z,61.01
2023-03-01T02:36:04.625Z,61.76
2023-03-01T02:38:32.830Z,63.08
2023-03-01T02:41:00.724Z,65.40
2023-03-01T02:43:32.758Z,63.20
2023-03-01T02:46:13.970Z,63.37
2023-03-01T02:48:49.991Z,64.00
2023-03-01T02:51:47.700Z,64.22
2023-03-01T02:54:14.534Z,65.61
2023-03-01T02:56:42.444Z,65.78
2023-03-01T02:59:10.627Z,65.75
2023-03-01T03:01:37.901Z,65.72
2023-03-01T03:04:08.123Z,67.09
2023-03-01T03:06:35.060Z,66.92
2023-03-01T03:09:02.000Z,69.41
2023-03-01T03:11:28.878Z,69.58
2023-03-01T03:13:56.158Z,71.64
2023-03-01T03:16:23.842Z,71.12
2023-03-01T03:18:50.625Z,72.01
2023-03-01T03:21:17.558Z,72.59
2023-03-01T03:23:44.884Z,73.06
2023-03-01T03:26:14.396Z,72.79
2023-03-01T03:28:41.319Z,73.58
2023-03-01T03:31:08.987Z,73.71
2023-03-01T03:33:35.984Z,73.52
2023-03-01T03:36:02.772Z,74.09
2023-03-01T03:38:29.656Z,73.91
2023-03-01T03:41:08.396Z,74.50
2023-03-01T03:43:37.972Z,74.28
2023-03-01T03:46:06.881Z,73.59
2023-03-01T03:48:39.286Z,73.78
2023-03-01T03:51:06.814Z,74.55
2023-03-01T03:53:33.941Z,75.61
2023-03-01T03:56:00.848Z,75.30
2023-03-01T03:58:27.632Z,75.52
2023-03-01T04:00:57.388Z,74.31
2023-03-01T04:03:26.348Z,74.08
2023-03-01T04:05:53.872Z,74.24
2023-03-01T04:08:22.753Z,74.21
2023-03-01T04:10:53.793Z,74.05
2023-03-01T04:13:23.624Z,73.37
2023-03-01T04:15:51.945Z,73.67
2023-03-01T04:18:20.717Z,74.00
2023-03-01T04:20:48.347Z,74.12
2023-03-01T04:23:21.026Z,74.44
2023-03-01T04:25:59.294Z,74.53
2023-03-01T04:28:37.661Z,75.00
2023-03-01T04:31:18.389Z,76.89
2023-03-01T04:33:47.015Z,78.07
2023-03-01T04:36:15.722Z,77.66
2023-03-01T04:38:43.000Z,77.83
2023-03-01T04:41:12.213Z,77.94
2023-03-01T04:43:39.272Z,78.11
2023-03-01T04:46:13.921Z,78.51
2023-03-01T04:48:44.265Z,77.99
2023-03-01T04:51:14.561Z,77.53
2023-03-01T04:53:43.016Z,77.28
2023-03-01T04:56:10.711Z,76.89
2023-03-01T04:58:37.855Z,76.72
2023-03-01T05:01:16.171Z,76.97
2023-03-01T05:03:48.254Z,76.85
2023-03-01T05:06:16.048Z,76.81
2023-03-01T05:08:43.761Z,76.29
2023-03-01T05:11:11.601Z,77.03
2023-03-01T05:13:39.917Z,77.33
2023-03-01T05:16:12.554Z,77.44
2023-03-01T05:18:41.099Z,77.13
2023-03-01T05:21:13.687Z,77.58
2023-03-01T05:23:40.868Z,77.45
2023-03-01T05:26:16.103Z,78.67
2023-03-01T05:28:49.308Z,78.90
2023-03-01T05:31:16.861Z,78.64
2023-03-01T05:33:44.492Z,78.08
2023-03-01T05:36:11.452Z,78.04
2023-03-01T05:38:38.238Z,77.58
2023-03-01T05:41:05.197Z,77.68
2023-03-01T05:43:36.120Z,77.21
2023-03-01T05:46:02.990Z,76.93
2023-03-01T05:48:29.843Z,77.28
2023-03-01T05:51:01.729Z,76.46
2023-03-01T05:53:28.576Z,76.00
2023-03-01T05:55:55.289Z,77.55
2023-03-01T05:58:22.762Z,77.06
2023-03-01T06:00:50.381Z,76.17
2023-03-01T06:03:18.326Z,76.24
2023-03-01T06:05:45.554Z,76.99
2023-03-01T06:08:13.686Z,77.76
2023-03-01T06:10:40.620Z,77.89
2023-03-01T06:13:07.421Z,76.91
2023-03-01T06:15:34.171Z,78.29
2023-03-01T06:18:00.918Z,78.00
2023-03-01T06:20:29.609Z,77.69
2023-03-01T06:22:56.604Z,77.52
2023-03-01T06:25:25.950Z,77.39
2023-03-01T06:27:55.752Z,77.76
2023-03-01T06:30:24.758Z,76.95
2023-03-01T06:32:52.125Z,77.47
2023-03-01T06:35:19.903Z,77.25
2023-03-01T06:37:47.800Z,77.29
2023-03-01T06:40:16.275Z,77.24
2023-03-01T06:42:48.560Z,77.07
2023-03-01T06:45:15.637Z,77.00
2023-03-01T06:47:42.557Z,76.31
2023-03-01T06:50:10.186Z,76.03
2023-03-01T06:52:37.295Z,76.15
2023-03-01T06:55:05.228Z,75.99
2023-03-01T06:57:32.194Z,75.50
2023-03-01T06:59:59.100Z,75.85
2023-03-01T07:02:25.959Z,75.45
2023-03-01T07:04:53.645Z,75.03
2023-03-01T07:07:21.008Z,75.40
2023-03-01T07:09:49.304Z,75.28
2023-03-01T07:12:16.131Z,75.56
2023-03-01T07:14:44.945Z,75.32
2023-03-01T07:17:11.657Z,75.17
2023-03-01T07:19:38.417Z,75.63
2023-03-01T07:22:05.695Z,75.77
2023-03-01T07:24:32.423Z,74.46
2023-03-01T07:26:59.305Z,74.44
2023-03-01T07:29:26.073Z,74.84
2023-03-01T07:31:53.207Z,74.82
2023-03-01T07:34:19.959Z,75.34
2023-03-01T07:36:46.690Z,75.35
2023-03-01T07:39:13.457Z,74.95
2023-03-01T07:41:40.338Z,75.11
2023-03-01T07:44:07.352Z,75.61
2023-03-01T07:46:34.253Z,76.66
2023-03-01T07:49:01.051Z,77.16
2023-03-01T07:51:27.856Z,76.20
2023-03-01T07:53:54.561Z,76.63
2023-03-01T07:56:23.024Z,76.30
2023-03-01T07:58:50.981Z,76.10
2023-03-01T08:01:20.512Z,75.90
2023-03-01T08:03:47.696Z,76.14
2023-03-01T08:06:17.271Z,76.64
2023-03-01T08:08:44.449Z,76.54
2023-03-01T08:11:16.008Z,77.20
2023-03-01T08:13:44.353Z,77.83
2023-03-01T08:16:13.614Z,78.04
2023-03-01T08:18:40.450Z,78.46
2023-03-01T08:21:14.854Z,77.84
2023-03-01T08:23:42.445Z,78.51
2023-03-01T08:26:18.263Z,78.70
2023-03-01T08:28:45.567Z,78.56
2023-03-01T08:31:19.398Z,78.80
2023-03-01T08:33:51.698Z,80.08
2023-03-01T08:36:19.381Z,80.37
2023-03-01T08:38:46.863Z,80.75
2023-03-01T08:41:14.101Z,80.65
2023-03-01T08:43:41.081Z,81.21
2023-03-01T08:46:08.049Z,81.25
2023-03-01T08:48:34.816Z,81.71
2023-03-01T08:51:12.683Z,81.49
2023-03-01T08:53:40.277Z,81.89
2023-03-01T08:56:07.765Z,82.21
2023-03-01T08:58:34.557Z,82.08
2023-03-01T09:01:01.596Z,81.83
2023-03-01T09:03:28.525Z,82.30
2023-03-01T09:06:01.654Z,82.27
2023-03-01T09:08:29.044Z,82.41
2023-03-01T09:10:56.099Z,81.24
2023-03-01T09:13:25.848Z,81.46
2023-03-01T09:15:52.889Z,81.72
2023-03-01T09:18:19.660Z,82.54
2023-03-01T09:20:46.572Z,83.22
2023-03-01T09:23:13.310Z,82.42
2023-03-01T09:25:40.060Z,82.57
2023-03-01T09:28:06.807Z,82.83
2023-03-01T09:30:34.055Z,83.44
2023-03-01T09:33:01.029Z,83.46
2023-03-01T09:35:27.953Z,84.08
2023-03-01T09:37:54.704Z,83.74
2023-03-01T09:40:25.287Z,84.05
2023-03-01T09:43:15.277Z,83.65
2023-03-01T09:45:46.719Z,83.45
2023-03-01T09:48:19.990Z,84.17
2023-03-01T09:50:47.882Z,84.23
2023-03-01T09:53:21.234Z,83.87
2023-03-01T09:56:19.930Z,84.02
2023-03-01T09:58:55.687Z,83.68
2023-03-01T10:01:22.401Z,83.79
2023-03-01T10:04:20.260Z,83.91
2023-03-01T10:07:02.093Z,83.64
2023-03-01T10:09:34.717Z,84.34
2023-03-01T10:12:03.452Z,84.31
2023-03-01T10:14:43.160Z,84.90
2023-03-01T10:17:57.553Z,85.60
2023-03-01T10:20:27.149Z,84.30
2023-03-01T10:22:56.219Z,84.34
2023-03-01T10:25:42.483Z,84.05
2023-03-01T10:28:24.319Z,85.37
2023-03-01T10:30:52.483Z,84.17
2023-03-01T10:33:40.712Z,84.12
2023-03-01T10:36:08.394Z,84.10
2023-03-01T10:38:54.892Z,84.56
2023-03-01T10:41:24.446Z,84.34
2023-03-01T10:43:55.701Z,85.71
2023-03-01T10:46:34.036Z,83.51
2023-03-01T10:49:17.656Z,84.52
2023-03-01T10:51:48.073Z,84.28
2023-03-01T10:54:23.357Z,84.12
2023-03-01T10:56:56.652Z,84.17
2023-03-01T10:59:29.340Z,83.87
2023-03-01T11:02:24.123Z,84.53
2023-03-01T11:04:58.209Z,86.00
2023-03-01T11:07:25.501Z,84.87
2023-03-01T11:09:52.223Z,86.24
2023-03-01T11:12:19.434Z,85.53
2023-03-01T11:14:51.782Z,85.90
2023-03-01T11:17:53.642Z,85.78
2023-03-01T11:20:38.986Z,86.39
2023-03-01T11:23:12.093Z,86.70
2023-03-01T11:25:43.104Z,86.99
2023-03-01T11:28:16.239Z,87.18
2023-03-01T11:31:07.845Z,87.05
2023-03-01T11:33:43.593Z,86.72
2023-03-01T11:36:34.243Z,87.00
2023-03-01T11:39:20.476Z,87.32
2023-03-01T11:41:53.262Z,87.55
2023-03-01T11:44:26.491Z,87.25
2023-03-01T11:47:18.044Z,87.35
2023-03-01T11:49:56.553Z,87.04
2023-03-01T11:52:41.634Z,86.89
2023-03-01T11:55:44.030Z,87.21
2023-03-01T11:58:29.451Z,86.45
2023-03-01T12:01:44.891Z,86.10
2023-03-01T12:04:30.266Z,86.17
2023-03-01T12:07:00.988Z,86.89
2023-03-01T12:09:51.356Z,86.91
2023-03-01T12:12:30.145Z,86.95
2023-03-01T12:15:19.223Z,86.68
2023-03-01T12:17:56.616Z,87.28
2023-03-01T12:20:23.431Z,86.45
2023-03-01T12:23:21.307Z,86.73
2023-03-01T12:26:15.769Z,87.08
2023-03-01T12:29:01.872Z,86.80
2023-03-01T12:31:41.025Z,86.76
2023-03-01T12:34:14.106Z,84.54
2023-03-01T12:36:59.204Z,85.20
2023-03-01T12:39:59.048Z,84.40
2023-03-01T12:42:34.834Z,84.77
2023-03-01T12:45:13.598Z,85.06
2023-03-01T12:48:12.825Z,85.04
2023-03-01T12:50:45.142Z,84.77
2023-03-01T12:53:24.924Z,85.26
2023-03-01T12:55:55.236Z,84.79
2023-03-01T12:58:36.991Z,85.70
2023-03-01T13:01:27.812Z,86.39
2023-03-01T13:04:09.229Z,85.43
2023-03-01T13:06:56.196Z,84.31
2023-03-01T13:09:25.960Z,84.34
2023-03-01T13:11:53.130Z,83.59
2023-03-01T13:14:23.953Z,84.51
2023-03-01T13:16:54.587Z,84.82
2023-03-01T13:19:26.372Z,85.45
2023-03-01T13:21:55.830Z,86.01
2023-03-01T13:24:38.859Z,86.67
2023-03-01T13:27:09.381Z,86.04
2023-03-01T13:30:35.025Z,85.55
2023-03-01T13:33:35.294Z,86.01
2023-03-01T13:36:02.839Z,86.57
2023-03-01T13:38:58.541Z,86.42
2023-03-01T13:41:43.762Z,86.31
2023-03-01T13:44:30.000Z,86.22
2023-03-01T13:47:13.670Z,85.23
2023-03-01T13:49:46.505Z,86.31
2023-03-01T13:52:43.409Z,86.32
2023-03-01T13:55:17.776Z,86.16
2023-03-01T13:57:49.006Z,86.43
2023-03-01T14:00:30.924Z,85.77
2023-03-01T14:03:06.109Z,85.47
2023-03-01T14:05:34.959Z,85.55
2023-03-01T14:08:01.914Z,85.20
2023-03-01T14:10:44.520Z,85.28
2023-03-01T14:13:30.239Z,85.22
2023-03-01T14:16:25.918Z,86.23
2023-03-01T14:19:32.582Z,85.88
2023-03-01T14:22:22.162Z,85.70
2023-03-01T14:25:04.300Z,86.08
2023-03-01T14:27:40.592Z,85.82
2023-03-01T14:30:15.706Z,85.77
2023-03-01T14:32:42.755Z,86.23
2023-03-01T14:35:25.103Z,85.88
2023-03-01T14:37:52.104Z,85.78
2023-03-01T14:40:25.629Z,85.65
2023-03-01T14:42:53.491Z,85.17
2023-03-01T14:45:21.337Z,86.06
2023-03-01T14:47:49.644Z,85.64
2023-03-01T14:50:23.398Z,86.28
2023-03-01T14:52:53.304Z,86.46
2023-03-01T14:55:30.575Z,85.37
2023-03-01T14:57:58.361Z,85.73
2023-03-01T15:00:31.114Z,85.11
2023-03-01T15:03:04.246Z,85.65
2023-03-01T15:05:33.226Z,86.03
2023-03-01T15:08:02.602Z,84.49
2023-03-01T15:10:35.951Z,85.55
2023-03-01T15:13:22.723Z,85.29
2023-03-01T15:15:54.851Z,85.13
2023-03-01T15:18:27.019Z,84.76
2023-03-01T15:20:54.674Z,84.04
2023-03-01T15:23:28.396Z,84.27
2023-03-01T15:25:59.288Z,84.93
2023-03-01T15:28:29.399Z,84.11
2023-03-01T15:31:16.505Z,83.66
2023-03-01T15:33:48.182Z,83.76
2023-03-01T15:36:34.088Z,83.85
2023-03-01T15:39:02.124Z,84.25
2023-03-01T15:41:32.151Z,85.59
2023-03-01T15:44:00.675Z,84.32
2023-03-01T15:46:38.689Z,83.98
2023-03-01T15:49:26.259Z,83.39
2023-03-01T15:51:56.073Z,82.36
2023-03-01T15:54:26.170Z,82.99
2023-03-01T15:56:53.325Z,82.82
2023-03-01T15:59:20.126Z,81.82
2023-03-01T16:01:49.840Z,82.63
2023-03-01T16:04:23.850Z,83.84
2023-03-01T16:06:55.234Z,83.66
2023-03-01T16:09:26.268Z,84.09
2023-03-01T16:11:54.500Z,83.92
2023-03-01T16:14:22.057Z,84.32
2023-03-01T16:16:49.814Z,83.19
2023-03-01T16:19:17.095Z,82.99
2023-03-01T16:21:44.841Z,84.09
2023-03-01T16:24:11.675Z,84.11
2023-03-01T16:26:38.823Z,84.49
2023-03-01T16:29:06.066Z,85.40
2023-03-01T16:31:33.797Z,85.28
2023-03-01T16:34:01.287Z,86.16
2023-03-01T16:36:31.626Z,84.61
2023-03-01T16:39:01.510Z,84.59
2023-03-01T16:41:28.842Z,84.30
2023-03-01T16:43:55.716Z,85.30
2023-03-01T16:46:25.391Z,85.42
2023-03-01T16:48:53.304Z,86.16
2023-03-01T16:51:20.975Z,86.09
2023-03-01T16:53:47.961Z,85.98
2023-03-01T16:56:15.544Z,86.18
2023-03-01T16:58:42.527Z,86.22
2023-03-01T17:01:20.873Z,86.19
2023-03-01T17:03:49.771Z,86.14
2023-03-01T17:06:21.385Z,85.87
2023-03-01T17:08:48.261Z,85.52
2023-03-01T17:11:18.656Z,85.53
2023-03-01T17:13:45.472Z,84.92
2023-03-01T17:16:15.427Z,85.65
2023-03-01T17:18:43.036Z,85.79
2023-03-01T17:21:10.312Z,86.08
2023-03-01T17:23:39.738Z,86.42
2023-03-01T17:26:07.626Z,86.38
2023-03-01T17:28:36.392Z,86.71
2023-03-01T17:31:05.520Z,87.20
2023-03-01T17:33:33.077Z,87.50
2023-03-01T17:36:00.792Z,87.70
2023-03-01T17:38:28.107Z,87.49
2023-03-01T17:40:55.056Z,88.33
2023-03-01T17:43:22.500Z,87.87
2023-03-01T17:45:51.594Z,88.24
2023-03-01T17:48:19.018Z,88.34
2023-03-01T17:50:46.086Z,88.12
2023-03-01T17:53:13.776Z,88.07
2023-03-01T17:55:42.541Z,88.25
2023-03-01T17:58:12.506Z,87.73
2023-03-01T18:00:40.077Z,88.09
2023-03-01T18:03:07.325Z,87.80
2023-03-01T18:05:36.031Z,87.79
2023-03-01T18:08:03.058Z,87.85
2023-03-01T18:10:31.249Z,87.59
2023-03-01T18:12:58.067Z,87.51
2023-03-01T18:15:24.977Z,87.07
2023-03-01T18:17:51.753Z,86.94
2023-03-01T18:20:19.451Z,86.89
2023-03-01T18:22:46.547Z,86.66
2023-03-01T18:25:13.817Z,85.64
2023-03-01T18:27:40.692Z,85.76
2023-03-01T18:30:09.156Z,86.09
2023-03-01T18:32:36.110Z,86.31
2023-03-01T18:35:03.600Z,85.92
2023-03-01T18:37:30.619Z,86.30
2023-03-01T18:39:57.493Z,86.46
2023-03-01T18:42:24.509Z,86.19
2023-03-01T18:44:51.584Z,86.02
2023-03-01T18:47:18.359Z,85.51
2023-03-01T18:49:45.290Z,86.27
2023-03-01T18:52:12.236Z,86.20
2023-03-01T18:54:39.150Z,85.83
2023-03-01T18:57:05.898Z,85.97
2023-03-01T18:59:33.443Z,85.83
2023-03-01T19:02:00.422Z,86.18
2023-03-01T19:04:27.625Z,86.63
2023-03-01T19:06:54.498Z,86.47
2023-03-01T19:09:21.316Z,87.13
2023-03-01T19:11:48.068Z,86.96
2023-03-01T19:14:14.951Z,87.53
2023-03-01T19:16:41.756Z,87.45
2023-03-01T19:19:10.124Z,87.16
2023-03-01T19:21:37.315Z,87.73
2023-03-01T19:24:04.692Z,87.15
2023-03-01T19:26:32.879Z,87.85
2023-03-01T19:29:00.734Z,87.60
2023-03-01T19:31:30.169Z,87.09
2023-03-01T19:34:16.035Z,87.88
2023-03-01T19:36:45.020Z,87.63
2023-03-01T19:39:14.405Z,87.91
2023-03-01T19:41:42.903Z,87.88
2023-03-01T19:44:10.825Z,88.66
2023-03-01T19:46:41.098Z,88.64
2023-03-01T19:49:08.838Z,88.01
2023-03-01T19:51:39.191Z,88.03
2023-03-01T19:54:06.702Z,87.95
2023-03-01T19:56:34.865Z,88.31
2023-03-01T19:59:04.712Z,87.46
2023-03-01T20:01:34.711Z,87.21
2023-03-01T20:04:02.791Z,86.64
2023-03-01T20:06:30.484Z,86.72
2023-03-01T20:08:57.955Z,86.13
2023-03-01T20:11:25.572Z,86.45
2023-03-01T20:13:52.504Z,87.04
2023-03-01T20:16:20.360Z,87.44
2023-03-01T20:18:47.209Z,87.08
2023-03-01T20:21:24.120Z,87.14
2023-03-01T20:23:52.931Z,87.16
2023-03-01T20:26:21.989Z,86.95
2023-03-01T20:28:52.832Z,87.50
2023-03-01T20:31:22.184Z,86.36
2023-03-01T20:33:49.735Z,84.99
2023-03-01T20:36:17.424Z,85.88
2023-03-01T20:38:45.539Z,86.48
2023-03-01T20:41:14.440Z,86.44
2023-03-01T20:43:44.976Z,86.61
2023-03-01T20:46:15.210Z,86.18
2023-03-01T20:48:43.313Z,85.22
2023-03-01T20:51:12.480Z,85.60
2023-03-01T20:53:40.536Z,85.97
2023-03-01T20:56:14.206Z,86.09
2023-03-01T20:58:46.166Z,86.53
2023-03-01T21:01:56.549Z,87.49
2023-03-01T21:04:23.708Z,87.31
2023-03-01T21:06:50.719Z,86.45
2023-03-01T21:09:17.895Z,86.16
2023-03-01T21:11:45.928Z,85.16
2023-03-01T21:14:12.960Z,84.18
2023-03-01T21:16:40.020Z,84.44
2023-03-01T21:19:07.559Z,85.58
2023-03-01T21:21:34.598Z,85.19
2023-03-01T21:24:01.815Z,83.54
2023-03-01T21:26:30.484Z,83.63
2023-03-01T21:29:03.122Z,85.00
2023-03-01T21:31:35.328Z,85.63
2023-03-01T21:34:06.032Z,85.21
2023-03-01T21:36:35.952Z,85.12
2023-03-01T21:39:07.016Z,85.27
2023-03-01T21:41:41.117Z,84.18
2023-03-01T21:44:13.900Z,85.24
2023-03-01T21:46:42.977Z,83.76
2023-03-01T21:49:11.300Z,83.36
2023-03-01T21:51:39.639Z,84.35
2023-03-01T21:54:09.528Z,84.59
2023-03-01T21:56:39.808Z,84.61
2023-03-01T21:59:15.362Z,83.83
2023-03-01T22:01:43.109Z,83.86
2023-03-01T22:04:10.925Z,84.19
2023-03-01T22:06:41.346Z,84.30
2023-03-01T22:09:16.827Z,85.83
2023-03-01T22:11:47.226Z,87.35
2023-03-01T22:14:14.846Z,86.82
2023-03-01T22:16:46.211Z,86.88
2023-03-01T22:19:16.236Z,86.42
2023-03-01T22:21:45.454Z,85.88
2023-03-01T22:24:13.744Z,84.86
2023-03-01T22:26:43.616Z,85.59
2023-03-01T22:29:15.111Z,86.57
2023-03-01T22:31:42.679Z,86.73
2023-03-01T22:34:10.327Z,86.91
2023-03-01T22:36:39.461Z,87.64
2023-03-01T22:39:06.720Z,87.68
2023-03-01T22:41:37.610Z,86.43
2023-03-01T22:44:04.843Z,86.57
2023-03-01T22:46:32.311Z,85.95
2023-03-01T22:48:59.592Z,84.47
2023-03-01T22:51:32.485Z,84.94
2023-03-01T22:53:59.880Z,85.86
2023-03-01T22:56:30.615Z,85.24
2023-03-01T22:59:03.160Z,85.02
2023-03-01T23:01:31.164Z,84.47
2023-03-01T23:03:58.395Z,85.39
2023-03-01T23:06:25.515Z,84.74
2023-03-01T23:08:54.548Z,84.95
2023-03-01T23:11:22.590Z,85.14
2023-03-01T23:13:50.155Z,85.83
2023-03-01T23:16:18.334Z,85.85
2023-03-01T23:18:45.518Z,85.13
2023-03-01T23:21:18.347Z,84.74
2023-03-01T23:23:47.274Z,84.58
2023-03-01T23:26:15.259Z,84.83
2023-03-01T23:28:42.976Z,84.80
2023-03-01T23:31:13.913Z,83.35
2023-03-01T23:33:43.325Z,83.78
2023-03-01T23:36:15.955Z,84.20
2023-03-01T23:38:42.809Z,84.35
2023-03-01T23:41:16.071Z,83.53
2023-03-01T23:43:47.605Z,83.52
2023-03-01T23:46:16.040Z,83.37
2023-03-01T23:48:43.776Z,83.42
2023-03-01T23:51:11.786Z,83.76
2023-03-01T23:53:44.964Z,82.00
2023-03-01T23:56:13.684Z,83.30
2023-03-01T23:58:43.412Z,84.28
